createdAt,value
2019-05-06T00:00:34.271Z,12.31
2019-05-06T00:01:38.485Z,12.31
2019-05-06T00:02:43.581Z,12.32
2019-05-06T00:03:48.013Z,12.34
2019-05-06T00:04:54.201Z,12.35
2019-05-06T00:05:58.489Z,12.35
2019-05-06T00:07:04.263Z,12.35
2019-05-06T00:08:08.583Z,12.35
2019-05-06T00:09:14.695Z,12.36
2019-05-06T00:10:30.381Z,12.37
2019-05-06T00:11:34.855Z,12.37
2019-05-06T00:12:39.261Z,12.35
2019-05-06T00:13:44.576Z,12.32
2019-05-06T00:14:48.982Z,12.28
2019-05-06T00:15:54.340Z,12.27
2019-05-06T00:16:59.765Z,12.27
2019-05-06T00:18:04.952Z,12.26
2019-05-06T00:19:09.235Z,12.26
2019-05-06T00:20:14.683Z,12.27
2019-05-06T00:21:20.070Z,12.28
2019-05-06T00:22:24.273Z,12.27
2019-05-06T00:23:30.241Z,12.23
2019-05-06T00:24:36.055Z,12.13
2019-05-06T00:25:44.822Z,12.15
2019-05-06T00:26:50.714Z,12.19
2019-05-06T00:28:14.914Z,12.19
2019-05-06T00:29:20.870Z,12.20
2019-05-06T00:30:25.225Z,12.17
2019-05-06T00:31:29.400Z,12.18
2019-05-06T00:32:34.878Z,12.17
2019-05-06T00:33:39.163Z,12.17
2019-05-06T00:34:44.451Z,12.16
2019-05-06T00:35:48.814Z,12.16
2019-05-06T00:36:54.528Z,12.18
2019-05-06T00:37:59.028Z,12.19
2019-05-06T00:39:07.114Z,12.17
2019-05-06T00:40:14.084Z,12.19
2019-05-06T00:41:35.898Z,12.19
2019-05-06T00:42:39.725Z,12.18
2019-05-06T00:43:43.953Z,12.14
2019-05-06T00:44:48.299Z,12.11
2019-05-06T00:45:53.653Z,12.13
2019-05-06T00:46:57.960Z,12.13
2019-05-06T00:48:04.503Z,12.13
2019-05-06T00:49:08.026Z,12.13
2019-05-06T00:50:14.234Z,12.16
2019-05-06T00:51:18.595Z,12.18
2019-05-06T00:52:23.934Z,12.19
2019-05-06T00:53:31.724Z,12.20
2019-05-06T00:54:36.291Z,12.21
2019-05-06T00:55:40.675Z,11.90
2019-05-06T00:56:46.481Z,12.18
2019-05-06T00:57:54.486Z,12.17
2019-05-06T00:59:03.687Z,12.19
2019-05-06T01:00:07.708Z,12.19
2019-05-06T01:01:24.114Z,12.17
2019-05-06T01:02:18.218Z,12.18
2019-05-06T01:03:23.863Z,12.17
2019-05-06T01:04:28.249Z,12.19
2019-05-06T01:05:33.749Z,12.16
2019-05-06T01:06:38.075Z,12.13
2019-05-06T01:07:43.989Z,12.12
2019-05-06T01:08:48.613Z,12.12
2019-05-06T01:09:54.173Z,12.13
2019-05-06T01:10:58.698Z,12.13
2019-05-06T01:12:03.724Z,12.15
2019-05-06T01:13:10.715Z,12.15
2019-05-06T01:14:20.740Z,12.14
2019-05-06T01:15:26.712Z,12.10
2019-05-06T01:16:30.934Z,12.08
2019-05-06T01:17:35.241Z,12.08
2019-05-06T01:18:39.566Z,12.09
2019-05-06T01:19:45.705Z,12.05
2019-05-06T01:20:51.637Z,12.01
2019-05-06T01:21:55.999Z,12.03
2019-05-06T01:23:00.249Z,12.03
2019-05-06T01:24:05.036Z,12.03
2019-05-06T01:25:09.301Z,12.00
2019-05-06T01:26:15.180Z,12.02
2019-05-06T01:27:19.488Z,12.00
2019-05-06T01:28:24.507Z,12.00
2019-05-06T01:29:28.796Z,12.00
2019-05-06T01:30:33.688Z,12.00
2019-05-06T01:31:42.914Z,12.02
2019-05-06T01:32:44.000Z,11.99
2019-05-06T01:33:48.182Z,11.98
2019-05-06T01:34:53.693Z,11.96
2019-05-06T01:35:58.221Z,11.96
2019-05-06T01:37:03.706Z,11.96
2019-05-06T01:38:21.547Z,11.95
2019-05-06T01:39:28.507Z,11.89
2019-05-06T01:40:34.625Z,11.90
2019-05-06T01:41:46.161Z,11.91
2019-05-06T01:42:54.019Z,11.91
2019-05-06T01:43:59.106Z,11.90
2019-05-06T01:45:04.704Z,11.85
2019-05-06T01:46:09.735Z,11.87
2019-05-06T01:47:14.556Z,11.87
2019-05-06T01:48:20.416Z,11.88
2019-05-06T01:49:24.677Z,11.88
2019-05-06T01:50:28.842Z,11.89
2019-05-06T01:51:34.814Z,11.88
2019-05-06T01:52:39.231Z,11.88
2019-05-06T01:53:44.826Z,11.87
2019-05-06T01:54:49.201Z,11.88
2019-05-06T01:55:54.606Z,11.88
2019-05-06T01:56:58.889Z,11.88
2019-05-06T01:58:04.987Z,11.84
2019-05-06T01:59:09.009Z,11.83
2019-05-06T02:00:14.067Z,11.83
2019-05-06T02:01:18.460Z,11.83
2019-05-06T02:02:23.883Z,11.84
2019-05-06T02:03:28.294Z,11.82
2019-05-06T02:04:33.699Z,11.81
2019-05-06T02:05:38.054Z,11.78
2019-05-06T02:06:43.723Z,11.80
2019-05-06T02:07:48.148Z,11.78
2019-05-06T02:08:54.019Z,11.75
2019-05-06T02:09:58.420Z,11.76
2019-05-06T02:11:04.138Z,11.77
2019-05-06T02:12:08.615Z,11.76
2019-05-06T02:13:14.237Z,11.77
2019-05-06T02:14:18.498Z,11.74
2019-05-06T02:15:23.882Z,11.74
2019-05-06T02:16:28.308Z,11.73
2019-05-06T02:17:34.386Z,11.66
2019-05-06T02:18:38.450Z,11.69
2019-05-06T02:19:43.837Z,11.67
2019-05-06T02:20:49.926Z,11.67
2019-05-06T02:21:55.808Z,11.65
2019-05-06T02:23:01.705Z,11.65
2019-05-06T02:24:13.542Z,11.65
2019-05-06T02:25:19.411Z,11.66
2019-05-06T02:26:23.981Z,11.66
2019-05-06T02:27:28.401Z,11.63
2019-05-06T02:28:34.457Z,11.63
2019-05-06T02:29:40.294Z,11.63
2019-05-06T02:30:46.129Z,11.62
2019-05-06T02:32:19.873Z,11.62
2019-05-06T02:33:26.774Z,11.54
2019-05-06T02:34:36.551Z,11.60
2019-05-06T02:35:48.470Z,11.58
2019-05-06T02:37:09.698Z,11.57
2019-05-06T02:38:32.593Z,11.54
2019-05-06T02:39:33.903Z,11.47
2019-05-06T02:40:36.499Z,11.36
2019-05-06T02:41:43.036Z,11.36
2019-05-06T02:42:46.607Z,11.34
2019-05-06T02:43:53.960Z,11.31
2019-05-06T02:44:56.809Z,11.26
2019-05-06T02:46:03.942Z,11.26
2019-05-06T02:47:24.736Z,11.27
2019-05-06T02:48:33.386Z,11.26
2019-05-06T02:49:38.238Z,11.27
2019-05-06T02:50:47.009Z,11.28
2019-05-06T02:51:53.452Z,11.28
2019-05-06T02:52:57.222Z,11.24
2019-05-06T02:54:03.307Z,11.24
2019-05-06T02:55:07.381Z,11.20
2019-05-06T02:56:13.411Z,11.17
2019-05-06T02:57:17.662Z,11.16
2019-05-06T02:58:23.696Z,11.16
2019-05-06T02:59:27.889Z,11.15
2019-05-06T03:00:32.977Z,11.15
2019-05-06T03:01:37.494Z,11.14
2019-05-06T03:02:44.893Z,11.14
2019-05-06T03:03:48.823Z,11.10
2019-05-06T03:04:53.150Z,11.11
2019-05-06T03:05:57.352Z,11.09
2019-05-06T03:07:03.686Z,11.07
2019-05-06T03:08:07.424Z,11.07
2019-05-06T03:09:13.451Z,11.02
2019-05-06T03:10:18.066Z,10.94
2019-05-06T03:11:23.971Z,10.91
2019-05-06T03:12:28.390Z,10.87
2019-05-06T03:13:33.935Z,10.89
2019-05-06T03:14:38.558Z,10.89
2019-05-06T03:15:43.481Z,10.88
2019-05-06T03:16:48.220Z,10.80
2019-05-06T03:17:55.092Z,10.80
2019-05-06T03:18:58.288Z,10.78
2019-05-06T03:20:04.567Z,10.78
2019-05-06T03:21:13.998Z,10.78
2019-05-06T03:22:19.983Z,10.78
2019-05-06T03:23:43.839Z,10.76
2019-05-06T03:24:49.848Z,10.70
2019-05-06T03:25:54.182Z,10.67
2019-05-06T03:26:58.624Z,10.65
2019-05-06T03:28:04.280Z,10.65
2019-05-06T03:29:08.687Z,10.60
2019-05-06T03:30:16.506Z,10.51
2019-05-06T03:31:19.230Z,10.48
2019-05-06T03:32:30.352Z,10.46
2019-05-06T03:33:46.642Z,10.48
2019-05-06T03:34:57.851Z,10.49
2019-05-06T03:35:56.135Z,10.49
2019-05-06T03:36:49.163Z,10.48
2019-05-06T03:37:53.591Z,10.48
2019-05-06T03:38:58.022Z,10.46
2019-05-06T03:40:03.053Z,10.47
2019-05-06T03:41:07.456Z,10.46
2019-05-06T03:42:13.682Z,10.40
2019-05-06T03:43:18.684Z,10.40
2019-05-06T03:44:23.903Z,10.40
2019-05-06T03:45:33.663Z,10.39
2019-05-06T03:46:55.820Z,10.38
2019-05-06T03:48:07.601Z,10.38
2019-05-06T03:49:13.488Z,10.32
2019-05-06T03:50:17.735Z,10.36
2019-05-06T03:51:23.459Z,10.35
2019-05-06T03:52:29.367Z,10.28
2019-05-06T03:53:34.900Z,10.28
2019-05-06T03:54:39.257Z,10.29
2019-05-06T03:55:46.770Z,10.28
2019-05-06T03:56:53.564Z,10.29
2019-05-06T03:57:57.196Z,10.27
2019-05-06T03:59:02.784Z,10.21
2019-05-06T04:00:08.090Z,10.24
2019-05-06T04:01:13.288Z,10.25
2019-05-06T04:02:17.870Z,10.26
2019-05-06T04:03:42.057Z,10.26
2019-05-06T04:04:29.493Z,10.25
2019-05-06T04:05:33.737Z,10.24
2019-05-06T04:06:37.990Z,10.23
2019-05-06T04:07:45.394Z,10.22
2019-05-06T04:08:49.044Z,10.22
2019-05-06T04:09:53.889Z,10.23
2019-05-06T04:10:58.182Z,10.23
2019-05-06T04:12:03.572Z,10.22
2019-05-06T04:13:09.129Z,10.22
2019-05-06T04:14:14.132Z,10.20
2019-05-06T04:15:18.470Z,10.20
2019-05-06T04:16:24.288Z,10.19
2019-05-06T04:17:32.718Z,10.19
2019-05-06T04:18:54.260Z,10.19
2019-05-06T04:20:04.053Z,10.17
2019-05-06T04:21:16.854Z,10.16
2019-05-06T04:22:25.707Z,10.14
2019-05-06T04:23:33.997Z,9.89
2019-05-06T04:24:49.040Z,10.06
2019-05-06T04:26:03.535Z,10.08
2019-05-06T04:27:26.266Z,10.06
2019-05-06T04:28:34.165Z,10.01
2019-05-06T04:29:37.977Z,10.00
2019-05-06T04:30:43.114Z,10.00
2019-05-06T04:31:47.582Z,9.99
2019-05-06T04:32:53.221Z,10.00
2019-05-06T04:34:09.831Z,9.94
2019-05-06T04:35:04.920Z,9.96
2019-05-06T04:36:09.206Z,9.98
2019-05-06T04:37:14.402Z,10.01
2019-05-06T04:38:18.896Z,10.01
2019-05-06T04:39:23.641Z,10.03
2019-05-06T04:40:27.988Z,10.04
2019-05-06T04:41:34.249Z,10.05
2019-05-06T04:42:38.277Z,10.07
2019-05-06T04:43:43.861Z,10.09
2019-05-06T04:44:48.373Z,10.11
2019-05-06T04:45:54.041Z,10.12
2019-05-06T04:46:58.641Z,10.11
2019-05-06T04:48:04.287Z,10.12
2019-05-06T04:49:14.078Z,10.10
2019-05-06T04:50:14.531Z,10.08
2019-05-06T04:51:18.789Z,10.10
2019-05-06T04:52:26.026Z,10.09
2019-05-06T04:53:29.018Z,10.09
2019-05-06T04:54:33.767Z,10.10
2019-05-06T04:55:39.118Z,10.12
2019-05-06T04:56:44.005Z,10.14
2019-05-06T04:57:48.438Z,10.14
2019-05-06T04:58:53.829Z,10.16
2019-05-06T04:59:58.330Z,10.13
2019-05-06T05:01:04.330Z,10.10
2019-05-06T05:02:08.819Z,10.12
2019-05-06T05:03:14.176Z,10.14
2019-05-06T05:04:28.289Z,10.13
2019-05-06T05:05:24.569Z,10.10
2019-05-06T05:06:28.828Z,10.11
2019-05-06T05:07:33.524Z,10.13
2019-05-06T05:08:38.409Z,10.15
2019-05-06T05:09:43.046Z,10.18
2019-05-06T05:10:54.918Z,10.21
2019-05-06T05:12:02.707Z,10.22
2019-05-06T05:13:08.445Z,10.23
2019-05-06T05:14:14.337Z,10.23
2019-05-06T05:15:20.209Z,10.17
2019-05-06T05:16:26.035Z,10.25
2019-05-06T05:17:46.780Z,10.27
2019-05-06T05:18:55.367Z,10.24
2019-05-06T05:19:59.559Z,10.24
2019-05-06T05:21:04.328Z,10.21
2019-05-06T05:22:08.521Z,10.19
2019-05-06T05:23:14.345Z,10.25
2019-05-06T05:24:18.523Z,10.29
2019-05-06T05:25:22.756Z,10.30
2019-05-06T05:26:28.622Z,10.27
2019-05-06T05:27:33.054Z,10.28
2019-05-06T05:28:37.276Z,10.30
2019-05-06T05:29:42.339Z,10.30
2019-05-06T05:30:46.663Z,10.33
2019-05-06T05:31:52.950Z,10.34
2019-05-06T05:32:56.977Z,10.35
2019-05-06T05:34:02.079Z,10.40
2019-05-06T05:35:06.879Z,10.43
2019-05-06T05:36:12.430Z,10.45
2019-05-06T05:37:16.819Z,10.48
2019-05-06T05:38:22.732Z,10.47
2019-05-06T05:39:27.098Z,10.46
2019-05-06T05:40:32.176Z,10.47
2019-05-06T05:41:36.593Z,10.52
2019-05-06T05:42:48.197Z,10.54
2019-05-06T05:43:58.263Z,10.58
2019-05-06T05:45:02.826Z,10.60
2019-05-06T05:46:07.101Z,10.62
2019-05-06T05:47:12.358Z,10.61
2019-05-06T05:48:32.432Z,10.64
2019-05-06T05:49:37.985Z,10.65
2019-05-06T05:50:43.633Z,10.68
2019-05-06T05:51:47.887Z,10.71
2019-05-06T05:52:52.458Z,10.73
2019-05-06T05:53:57.025Z,10.73
2019-05-06T05:55:02.747Z,10.70
2019-05-06T05:56:07.213Z,10.72
2019-05-06T05:57:11.923Z,10.77
2019-05-06T05:58:16.333Z,10.81
2019-05-06T05:59:23.169Z,10.83
2019-05-06T06:00:28.716Z,10.87
2019-05-06T06:01:32.965Z,10.88
2019-05-06T06:02:37.258Z,10.91
2019-05-06T06:03:42.169Z,10.96
2019-05-06T06:04:55.856Z,11.01
2019-05-06T06:05:52.373Z,11.01
2019-05-06T06:06:56.794Z,10.95
2019-05-06T06:08:02.875Z,11.00
2019-05-06T06:09:07.376Z,11.06
2019-05-06T06:10:13.274Z,11.06
2019-05-06T06:11:19.119Z,11.10
2019-05-06T06:12:23.400Z,11.13
2019-05-06T06:13:27.787Z,11.18
2019-05-06T06:14:43.728Z,11.21
2019-05-06T06:16:06.430Z,11.24
2019-05-06T06:17:32.500Z,11.22
2019-05-06T06:19:38.594Z,11.24
2019-05-06T06:24:36.463Z,11.26
2019-05-06T06:25:42.379Z,11.23
2019-05-06T06:26:46.608Z,11.22
2019-05-06T06:27:52.230Z,11.22
2019-05-06T06:28:56.507Z,11.25
2019-05-06T06:30:02.437Z,11.31
2019-05-06T06:31:15.975Z,11.38
2019-05-06T06:32:23.054Z,11.44
2019-05-06T06:33:27.812Z,11.50
2019-05-06T06:34:33.905Z,11.57
2019-05-06T06:35:42.618Z,11.63
2019-05-06T06:36:47.482Z,11.68
2019-05-06T06:37:56.478Z,11.69
2019-05-06T06:39:12.465Z,11.75
2019-05-06T06:40:22.133Z,11.78
2019-05-06T06:41:24.143Z,11.83
2019-05-06T06:42:28.703Z,11.86
2019-05-06T06:43:32.913Z,11.90
2019-05-06T06:44:37.140Z,11.94
2019-05-06T06:45:42.142Z,11.98
2019-05-06T06:46:46.632Z,12.02
2019-05-06T06:47:51.886Z,12.07
2019-05-06T06:48:56.213Z,12.11
2019-05-06T06:50:02.624Z,12.15
2019-05-06T06:51:06.284Z,12.18
2019-05-06T06:52:14.176Z,12.22
2019-05-06T06:53:16.879Z,12.23
2019-05-06T06:54:22.839Z,12.26
2019-05-06T06:55:27.207Z,12.31
2019-05-06T06:56:33.303Z,12.32
2019-05-06T06:57:42.521Z,12.35
2019-05-06T06:59:06.619Z,12.36
2019-05-06T07:00:13.491Z,12.32
2019-05-06T07:01:23.480Z,12.34
2019-05-06T07:02:35.978Z,12.37
2019-05-06T07:03:44.542Z,12.40
2019-05-06T07:04:52.590Z,12.40
2019-05-06T07:05:58.035Z,12.44
2019-05-06T07:07:03.905Z,12.47
2019-05-06T07:08:08.185Z,12.51
2019-05-06T07:09:12.653Z,12.54
2019-05-06T07:10:34.631Z,12.58
2019-05-06T07:11:38.807Z,12.63
2019-05-06T07:12:42.986Z,12.64
2019-05-06T07:13:53.505Z,12.69
2019-05-06T07:15:02.377Z,12.72
2019-05-06T07:16:06.279Z,12.77
2019-05-06T07:17:10.563Z,12.82
2019-05-06T07:18:15.589Z,12.84
2019-05-06T07:19:22.953Z,12.85
2019-05-06T07:20:32.374Z,12.90
2019-05-06T07:21:37.483Z,12.91
2019-05-06T07:22:42.504Z,12.95
2019-05-06T07:23:46.723Z,12.99
2019-05-06T07:24:52.702Z,13.02
2019-05-06T07:25:57.129Z,13.05
2019-05-06T07:27:03.120Z,13.08
2019-05-06T07:28:07.373Z,13.13
2019-05-06T07:29:15.330Z,13.14
2019-05-06T07:30:19.207Z,13.20
2019-05-06T07:31:26.494Z,13.23
2019-05-06T07:32:29.519Z,13.29
2019-05-06T07:33:34.064Z,13.33
2019-05-06T07:34:38.289Z,13.38
2019-05-06T07:35:43.959Z,13.42
2019-05-06T07:36:49.413Z,13.46
2019-05-06T07:37:53.925Z,13.51
2019-05-06T07:38:58.289Z,13.55
2019-05-06T07:40:03.156Z,13.58
2019-05-06T07:41:14.927Z,13.61
2019-05-06T07:42:19.770Z,13.64
2019-05-06T07:43:28.033Z,13.66
2019-05-06T07:44:46.002Z,13.69
2019-05-06T07:45:53.174Z,13.69
2019-05-06T07:47:04.833Z,13.71
2019-05-06T07:48:12.814Z,13.75
2019-05-06T07:49:18.143Z,13.75
2019-05-06T07:50:22.498Z,13.77
2019-05-06T07:51:27.213Z,13.79
2019-05-06T07:52:32.564Z,13.83
2019-05-06T07:53:37.008Z,13.85
2019-05-06T07:54:42.417Z,13.91
2019-05-06T07:55:46.768Z,13.96
2019-05-06T07:56:52.614Z,14.00
2019-05-06T07:57:57.211Z,14.05
2019-05-06T07:59:12.560Z,14.09
2019-05-06T08:00:16.199Z,14.13
2019-05-06T08:01:25.974Z,14.16
2019-05-06T08:02:27.953Z,14.21
2019-05-06T08:03:32.949Z,14.25
2019-05-06T08:04:37.404Z,14.26
2019-05-06T08:05:54.822Z,14.28
2019-05-06T08:06:47.562Z,14.33
2019-05-06T08:07:55.046Z,14.34
2019-05-06T08:08:57.862Z,14.38
2019-05-06T08:10:02.370Z,14.41
2019-05-06T08:11:07.867Z,14.43
2019-05-06T08:12:12.673Z,14.46
2019-05-06T08:13:16.978Z,14.45
2019-05-06T08:14:22.579Z,14.45
2019-05-06T08:15:27.221Z,14.48
2019-05-06T08:16:33.103Z,14.55
2019-05-06T08:17:38.361Z,14.59
2019-05-06T08:18:43.358Z,14.66
2019-05-06T08:19:47.554Z,14.73
2019-05-06T08:20:52.067Z,14.75
2019-05-06T08:22:02.664Z,14.79
2019-05-06T08:23:12.562Z,14.83
2019-05-06T08:24:16.906Z,14.88
2019-05-06T08:25:22.982Z,14.91
2019-05-06T08:26:27.274Z,14.96
2019-05-06T08:27:32.971Z,14.99
2019-05-06T08:28:41.414Z,15.04
2019-05-06T08:29:43.303Z,15.09
2019-05-06T08:30:47.639Z,15.15
2019-05-06T08:31:52.480Z,15.19
2019-05-06T08:32:57.111Z,15.17
2019-05-06T08:34:02.670Z,15.21
2019-05-06T08:35:09.956Z,15.28
2019-05-06T08:36:15.048Z,15.32
2019-05-06T08:37:23.850Z,15.38
2019-05-06T08:38:28.026Z,15.42
2019-05-06T08:39:32.778Z,15.47
2019-05-06T08:40:37.177Z,15.51
2019-05-06T08:41:42.312Z,15.55
2019-05-06T08:42:47.759Z,15.55
2019-05-06T08:43:52.861Z,15.56
2019-05-06T08:44:57.399Z,15.64
2019-05-06T08:46:03.203Z,15.68
2019-05-06T08:47:07.815Z,15.73
2019-05-06T08:48:13.070Z,15.75
2019-05-06T08:49:17.430Z,15.75
2019-05-06T08:50:23.374Z,15.77
2019-05-06T08:51:35.212Z,15.84
2019-05-06T08:52:57.258Z,15.88
2019-05-06T08:54:03.311Z,15.93
2019-05-06T08:55:07.835Z,15.98
2019-05-06T08:56:16.398Z,16.04
2019-05-06T08:57:19.822Z,16.08
2019-05-06T08:58:25.908Z,16.08
2019-05-06T08:59:32.095Z,16.12
2019-05-06T09:00:38.274Z,16.13
2019-05-06T09:01:44.162Z,16.14
2019-05-06T09:02:48.749Z,16.10
2019-05-06T09:04:06.433Z,16.12
2019-05-06T09:04:59.115Z,16.07
2019-05-06T09:06:03.414Z,16.08
2019-05-06T09:07:07.588Z,16.06
2019-05-06T09:08:13.700Z,16.07
2019-05-06T09:09:17.741Z,16.09
2019-05-06T09:10:22.805Z,16.09
2019-05-06T09:11:27.189Z,16.08
2019-05-06T09:12:32.935Z,16.06
2019-05-06T09:13:38.936Z,15.95
2019-05-06T09:14:43.658Z,15.95
2019-05-06T09:15:47.861Z,15.88
2019-05-06T09:16:53.886Z,15.85
2019-05-06T09:17:58.571Z,15.84
2019-05-06T09:19:04.249Z,15.83
2019-05-06T09:20:09.190Z,15.71
2019-05-06T09:21:13.999Z,15.71
2019-05-06T09:22:18.175Z,15.74
2019-05-06T09:23:22.734Z,15.69
2019-05-06T09:24:27.201Z,15.67
2019-05-06T09:25:32.263Z,15.70
2019-05-06T09:26:39.484Z,15.75
2019-05-06T09:27:48.350Z,15.69
2019-05-06T09:28:54.344Z,15.67
2019-05-06T09:30:02.841Z,15.72
2019-05-06T09:31:09.725Z,15.74
2019-05-06T09:32:18.981Z,15.75
2019-05-06T09:33:24.800Z,15.74
2019-05-06T09:34:36.414Z,15.74
2019-05-06T09:35:42.241Z,15.78
2019-05-06T09:36:52.657Z,15.86
2019-05-06T09:37:55.033Z,15.90
2019-05-06T09:38:59.488Z,15.97
2019-05-06T09:40:04.242Z,16.03
2019-05-06T09:41:09.402Z,16.10
2019-05-06T09:42:14.338Z,16.17
2019-05-06T09:43:18.800Z,16.25
2019-05-06T09:44:23.052Z,16.34
2019-05-06T09:45:27.328Z,16.42
2019-05-06T09:46:32.194Z,16.52
2019-05-06T09:47:44.325Z,16.65
2019-05-06T09:49:03.371Z,16.64
2019-05-06T09:50:09.271Z,16.72
2019-05-06T09:51:14.619Z,16.85
2019-05-06T09:52:19.489Z,16.89
2019-05-06T09:53:28.472Z,16.86
2019-05-06T09:54:34.535Z,16.92
2019-05-06T09:55:43.198Z,16.87
2019-05-06T09:56:49.270Z,16.91
2019-05-06T09:57:58.123Z,16.94
2019-05-06T09:59:02.431Z,16.99
2019-05-06T10:00:07.169Z,17.01
2019-05-06T10:01:13.207Z,17.04
2019-05-06T10:02:17.554Z,17.04
2019-05-06T10:03:22.602Z,17.10
2019-05-06T10:04:27.083Z,17.09
2019-05-06T10:05:31.575Z,17.12
2019-05-06T10:06:36.496Z,17.19
2019-05-06T10:07:41.000Z,17.21
2019-05-06T10:08:45.191Z,17.25
2019-05-06T10:09:52.361Z,17.26
2019-05-06T10:10:59.736Z,17.22
2019-05-06T10:12:02.288Z,17.25
2019-05-06T10:13:06.465Z,17.22
2019-05-06T10:14:12.912Z,17.12
2019-05-06T10:15:17.801Z,17.11
2019-05-06T10:16:22.070Z,17.04
2019-05-06T10:17:26.336Z,17.07
2019-05-06T10:18:31.032Z,17.06
2019-05-06T10:19:35.601Z,16.95
2019-05-06T10:20:44.135Z,16.86
2019-05-06T10:21:48.895Z,16.82
2019-05-06T10:22:53.133Z,16.78
2019-05-06T10:23:57.394Z,16.70
2019-05-06T10:25:03.654Z,16.70
2019-05-06T10:26:09.153Z,16.68
2019-05-06T10:27:16.420Z,16.68
2019-05-06T10:28:38.539Z,16.69
2019-05-06T10:29:44.793Z,16.73
2019-05-06T10:30:49.135Z,16.75
2019-05-06T10:32:00.925Z,16.75
2019-05-06T10:33:10.816Z,16.75
2019-05-06T10:34:15.409Z,16.71
2019-05-06T10:35:19.582Z,16.69
2019-05-06T10:36:23.764Z,16.70
2019-05-06T10:37:33.574Z,16.67
2019-05-06T10:38:47.346Z,16.67
2019-05-06T10:40:16.229Z,16.67
2019-05-06T10:41:22.509Z,16.60
2019-05-06T10:42:34.346Z,16.53
2019-05-06T10:44:00.034Z,16.51
2019-05-06T10:45:16.646Z,16.51
2019-05-06T10:46:22.563Z,16.49
2019-05-06T10:47:26.840Z,16.52
2019-05-06T10:48:31.424Z,16.55
2019-05-06T10:49:36.029Z,16.58
2019-05-06T10:50:42.418Z,16.64
2019-05-06T10:51:54.445Z,16.62
2019-05-06T10:53:02.549Z,16.63
2019-05-06T10:54:06.609Z,16.64
2019-05-06T10:55:12.293Z,16.66
2019-05-06T10:56:32.122Z,16.71
2019-05-06T10:57:40.382Z,16.67
2019-05-06T10:58:44.400Z,16.56
2019-05-06T10:59:48.743Z,16.50
2019-05-06T11:00:54.698Z,16.50
2019-05-06T11:02:05.024Z,16.50
2019-05-06T11:03:27.751Z,16.51
2019-05-06T11:04:33.127Z,16.49
2019-05-06T11:05:37.388Z,16.40
2019-05-06T11:06:42.973Z,16.36
2019-05-06T11:07:47.480Z,16.30
2019-05-06T11:08:52.511Z,16.25
2019-05-06T11:09:56.967Z,16.26
2019-05-06T11:11:15.031Z,16.29
2019-05-06T11:12:08.731Z,16.32
2019-05-06T11:13:13.259Z,16.20
2019-05-06T11:14:17.448Z,16.20
2019-05-06T11:15:23.336Z,16.16
2019-05-06T11:16:28.053Z,16.14
2019-05-06T11:17:32.664Z,16.22
2019-05-06T11:18:37.925Z,16.22
2019-05-06T11:19:44.340Z,16.19
2019-05-06T11:20:52.970Z,16.18
2019-05-06T11:21:54.659Z,16.23
2019-05-06T11:22:59.227Z,16.30
2019-05-06T11:24:06.289Z,16.36
2019-05-06T11:25:12.317Z,16.34
2019-05-06T11:26:16.736Z,16.37
2019-05-06T11:27:28.673Z,16.35
2019-05-06T11:28:42.670Z,16.30
2019-05-06T11:29:53.044Z,16.32
2019-05-06T11:30:58.911Z,16.38
2019-05-06T11:32:04.828Z,16.40
2019-05-06T11:33:12.634Z,16.53
2019-05-06T11:34:24.156Z,16.64
2019-05-06T11:35:45.921Z,16.75
2019-05-06T11:37:00.401Z,16.81
2019-05-06T11:38:06.720Z,16.85
2019-05-06T11:39:13.988Z,16.85
2019-05-06T11:40:17.368Z,16.85
2019-05-06T11:41:23.355Z,16.89
2019-05-06T11:42:32.428Z,16.89
2019-05-06T11:43:34.203Z,16.94
2019-05-06T11:44:38.691Z,16.99
2019-05-06T11:45:42.950Z,16.93
2019-05-06T11:46:47.145Z,16.93
2019-05-06T11:47:55.439Z,16.94
2019-05-06T11:48:58.058Z,16.86
2019-05-06T11:50:05.005Z,16.87
2019-05-06T11:51:12.720Z,16.87
2019-05-06T11:52:15.722Z,16.89
2019-05-06T11:53:19.924Z,16.91
2019-05-06T11:54:24.780Z,16.94
2019-05-06T11:55:34.383Z,16.93
2019-05-06T11:56:47.915Z,16.89
2019-05-06T11:57:44.645Z,16.90
2019-05-06T11:58:49.876Z,16.85
2019-05-06T11:59:54.363Z,16.72
2019-05-06T12:01:02.576Z,16.68
2019-05-06T12:02:07.402Z,16.66
2019-05-06T12:03:13.805Z,16.68
2019-05-06T12:04:18.298Z,16.71
2019-05-06T12:05:22.515Z,16.72
2019-05-06T12:06:26.911Z,16.68
2019-05-06T12:07:33.222Z,16.71
2019-05-06T12:08:36.956Z,16.73
2019-05-06T12:09:41.147Z,16.78
2019-05-06T12:10:45.389Z,16.85
2019-05-06T12:11:49.670Z,16.94
2019-05-06T12:12:53.847Z,17.05
2019-05-06T12:13:58.097Z,17.15
2019-05-06T12:15:03.483Z,17.25
2019-05-06T12:16:09.547Z,17.24
2019-05-06T12:17:14.178Z,17.23
2019-05-06T12:18:18.992Z,17.19
2019-05-06T12:19:23.383Z,17.20
2019-05-06T12:20:27.887Z,17.22
2019-05-06T12:21:33.119Z,17.06
2019-05-06T12:22:37.542Z,17.13
2019-05-06T12:23:44.932Z,17.11
2019-05-06T12:24:47.868Z,17.11
2019-05-06T12:25:52.902Z,17.19
2019-05-06T12:26:57.305Z,17.35
2019-05-06T12:28:03.040Z,17.35
2019-05-06T12:29:09.169Z,17.43
2019-05-06T12:30:14.962Z,17.51
2019-05-06T12:31:19.286Z,17.62
2019-05-06T12:32:28.470Z,17.71
2019-05-06T12:33:37.583Z,17.81
2019-05-06T12:34:42.971Z,17.89
2019-05-06T12:35:52.023Z,17.92
2019-05-06T12:36:55.624Z,17.92
2019-05-06T12:38:06.790Z,17.95
2019-05-06T12:39:19.620Z,17.96
2019-05-06T12:40:23.600Z,17.91
2019-05-06T12:41:29.056Z,17.84
2019-05-06T12:42:37.823Z,17.78
2019-05-06T12:43:45.526Z,17.74
2019-05-06T12:44:52.954Z,17.74
2019-05-06T12:46:04.953Z,17.75
2019-05-06T12:47:19.803Z,17.76
2019-05-06T12:48:28.587Z,17.69
2019-05-06T12:49:32.812Z,17.52
2019-05-06T12:50:37.020Z,17.47
2019-05-06T12:51:43.366Z,17.52
2019-05-06T12:52:47.208Z,17.54
2019-05-06T12:53:54.420Z,17.52
2019-05-06T12:55:14.726Z,17.54
2019-05-06T12:56:05.566Z,17.59
2019-05-06T12:57:12.426Z,17.61
2019-05-06T12:58:20.044Z,17.54
2019-05-06T12:59:22.283Z,17.45
2019-05-06T13:00:28.291Z,17.52
2019-05-06T13:01:34.002Z,17.52
2019-05-06T13:02:38.522Z,17.50
2019-05-06T13:03:44.482Z,17.49
2019-05-06T13:04:57.689Z,17.30
2019-05-06T13:05:55.025Z,17.28
2019-05-06T13:06:59.568Z,17.33
2019-05-06T13:08:06.274Z,17.42
2019-05-06T13:09:12.748Z,17.46
2019-05-06T13:10:19.205Z,17.51
2019-05-06T13:11:24.849Z,17.55
2019-05-06T13:12:33.513Z,17.53
2019-05-06T13:13:37.180Z,17.53
2019-05-06T13:14:43.096Z,17.60
2019-05-06T13:15:47.327Z,17.64
2019-05-06T13:16:53.209Z,17.66
2019-05-06T13:17:57.610Z,17.62
2019-05-06T13:19:03.282Z,17.63
2019-05-06T13:20:08.008Z,17.67
2019-05-06T13:21:12.805Z,17.74
2019-05-06T13:22:18.870Z,17.80
2019-05-06T13:23:25.775Z,17.87
2019-05-06T13:24:32.579Z,17.90
2019-05-06T13:25:36.824Z,17.92
2019-05-06T13:26:43.200Z,17.98
2019-05-06T13:27:47.788Z,17.85
2019-05-06T13:28:53.603Z,17.82
2019-05-06T13:29:57.839Z,17.77
2019-05-06T13:31:16.001Z,17.77
2019-05-06T13:32:09.779Z,17.84
2019-05-06T13:33:34.160Z,17.89
2019-05-06T13:34:37.430Z,17.92
2019-05-06T13:35:42.007Z,17.98
2019-05-06T13:36:46.389Z,18.01
2019-05-06T13:37:52.675Z,18.01
2019-05-06T13:39:09.541Z,18.09
2019-05-06T13:40:03.486Z,18.09
2019-05-06T13:41:07.792Z,18.13
2019-05-06T13:42:13.772Z,18.15
2019-05-06T13:43:19.836Z,18.21
2019-05-06T13:44:24.042Z,18.26
2019-05-06T13:45:28.301Z,18.30
2019-05-06T13:46:34.181Z,18.31
2019-05-06T13:47:48.922Z,18.28
2019-05-06T13:48:57.435Z,18.24
2019-05-06T13:50:02.948Z,18.24
2019-05-06T13:51:09.684Z,18.25
2019-05-06T13:52:13.991Z,18.24
2019-05-06T13:53:18.231Z,18.20
2019-05-06T13:54:22.639Z,18.23
2019-05-06T13:55:26.885Z,18.19
2019-05-06T13:56:33.110Z,18.09
2019-05-06T13:57:39.399Z,18.12
2019-05-06T13:58:43.862Z,18.16
2019-05-06T13:59:48.203Z,18.17
2019-05-06T14:00:52.473Z,18.20
2019-05-06T14:01:58.373Z,18.23
2019-05-06T14:03:02.650Z,18.25
2019-05-06T14:04:06.853Z,18.26
2019-05-06T14:05:12.169Z,18.27
2019-05-06T14:06:17.727Z,18.23
2019-05-06T14:07:24.260Z,18.18
2019-05-06T14:08:27.871Z,18.20
2019-05-06T14:09:39.314Z,18.23
2019-05-06T14:10:38.059Z,18.24
2019-05-06T14:11:42.435Z,18.26
2019-05-06T14:12:46.598Z,18.27
2019-05-06T14:13:52.924Z,18.24
2019-05-06T14:14:57.939Z,18.22
2019-05-06T14:16:03.984Z,18.22
2019-05-06T14:17:07.982Z,18.16
2019-05-06T14:18:13.419Z,18.05
2019-05-06T14:19:17.782Z,18.02